Terminal Aerodrome Forecast
Issued by NWS

Home | Current Version | Previous Version | Text Only | Print | Product List | Glossary On
Versions: 1 2 3 4 5 6 7 8 9 10 11 12 13 14 15 16
000
FTUS43 KMPX 221120
TAFAXN
TAF
KAXN 221120Z 2212/2312 28007KT P6SM SCT045 BKN150
     FM221500 30010KT P6SM BKN050
     FM222000 30012KT P6SM VCSH BKN040
     FM230300 33007KT P6SM SCT025 OVC040
     FM230800 34008KT P6SM VCSH BKN015 OVC030=

USA.gov is the U.S. government's official web portal to all federal, state and local government web resources and services.